createdAt,value
2022-08-02T00:01:22.270Z,1.80
2022-08-02T00:03:49.916Z,2.00
2022-08-02T00:06:17.865Z,2.37
2022-08-02T00:08:45.483Z,2.00
2022-08-02T00:11:13.276Z,2.17
2022-08-02T00:13:40.944Z,2.17
2022-08-02T00:16:10.939Z,2.07
2022-08-02T00:18:45.173Z,2.37
2022-08-02T00:21:12.836Z,2.50
2022-08-02T00:24:27.824Z,2.00
2022-08-02T00:26:29.249Z,2.00
2022-08-02T00:28:56.792Z,2.00
2022-08-02T00:31:25.707Z,1.90
2022-08-02T00:34:29.878Z,2.43
2022-08-02T00:36:40.828Z,2.03
2022-08-02T00:39:08.395Z,2.27
2022-08-02T00:41:55.885Z,2.30
2022-08-02T00:44:23.667Z,1.90
2022-08-02T00:46:52.667Z,2.07
2022-08-02T00:49:21.278Z,2.13
2022-08-02T00:51:49.018Z,1.80
2022-08-02T00:54:16.690Z,2.07
2022-08-02T00:56:49.527Z,2.10
2022-08-02T00:59:17.819Z,2.20
2022-08-02T01:01:56.489Z,1.93
2022-08-02T01:04:31.469Z,2.20
2022-08-02T01:07:00.181Z,2.23
2022-08-02T01:09:27.829Z,1.90
2022-08-02T01:11:55.514Z,2.57
2022-08-02T01:14:25.188Z,2.03
2022-08-02T01:17:00.346Z,2.27
2022-08-02T01:19:39.194Z,2.00
2022-08-02T01:22:21.172Z,2.30
2022-08-02T01:25:07.615Z,2.10
2022-08-02T01:27:50.933Z,1.70
2022-08-02T01:30:20.657Z,2.87
2022-08-02T01:32:54.612Z,2.10
2022-08-02T01:35:28.413Z,2.00
2022-08-02T01:38:02.442Z,2.13
2022-08-02T01:40:32.509Z,2.30
2022-08-02T01:43:01.686Z,2.40
2022-08-02T01:45:34.214Z,2.20
2022-08-02T01:48:04.445Z,2.00
2022-08-02T01:50:34.376Z,2.50
2022-08-02T01:53:07.985Z,2.20
2022-08-02T01:55:57.555Z,1.90
2022-08-02T01:58:30.310Z,2.40
2022-08-02T02:01:01.601Z,2.30
2022-08-02T02:03:32.102Z,2.33
2022-08-02T02:06:04.585Z,2.43
2022-08-02T02:08:36.180Z,2.10
2022-08-02T02:12:09.653Z,2.20
2022-08-02T02:13:53.599Z,2.17
2022-08-02T02:16:24.714Z,2.43
2022-08-02T02:18:53.813Z,2.20
2022-08-02T02:21:22.105Z,2.40
2022-08-02T02:23:50.737Z,2.13
2022-08-02T02:26:29.531Z,2.47
2022-08-02T02:29:02.517Z,3.07
2022-08-02T02:31:35.702Z,2.13
2022-08-02T02:34:05.483Z,2.40
2022-08-02T02:36:35.111Z,2.00
2022-08-02T02:39:11.591Z,2.60
2022-08-02T02:41:43.436Z,2.30
2022-08-02T02:44:14.434Z,2.60
2022-08-02T02:46:44.884Z,2.60
2022-08-02T02:49:14.291Z,2.80
2022-08-02T02:51:43.004Z,2.30
2022-08-02T02:54:30.519Z,2.30
2022-08-02T02:57:01.656Z,2.33
2022-08-02T02:59:29.998Z,2.20
2022-08-02T03:01:59.480Z,2.43
2022-08-02T03:04:55.482Z,2.10
2022-08-02T03:07:17.333Z,2.70
2022-08-02T03:09:45.134Z,2.40
2022-08-02T03:12:20.091Z,2.67
2022-08-02T03:14:49.460Z,2.40
2022-08-02T03:17:18.737Z,2.67
2022-08-02T03:19:46.925Z,2.27
2022-08-02T03:22:14.646Z,2.67
2022-08-02T03:24:42.352Z,2.67
2022-08-02T03:27:09.905Z,2.93
2022-08-02T03:29:37.629Z,2.20
2022-08-02T03:32:06.051Z,2.47
2022-08-02T03:34:35.052Z,2.60
2022-08-02T03:37:03.717Z,2.70
2022-08-02T03:39:33.275Z,2.50
2022-08-02T03:42:01.908Z,2.80
2022-08-02T03:44:29.945Z,2.13
2022-08-02T03:46:58.728Z,2.90
2022-08-02T03:49:26.888Z,2.60
2022-08-02T03:51:56.546Z,2.97
2022-08-02T03:54:34.814Z,2.47
2022-08-02T03:57:12.308Z,2.70
2022-08-02T03:59:44.056Z,2.90
2022-08-02T04:02:12.786Z,3.07
2022-08-02T04:04:40.973Z,2.90
2022-08-02T04:07:09.929Z,2.90
2022-08-02T04:09:37.460Z,2.77
2022-08-02T04:12:05.936Z,2.90
2022-08-02T04:14:36.116Z,3.10
2022-08-02T04:17:08.660Z,2.77
2022-08-02T04:19:41.947Z,3.03
2022-08-02T04:22:17.587Z,3.30
2022-08-02T04:24:50.433Z,3.00
2022-08-02T04:27:50.423Z,2.90
2022-08-02T04:30:10.024Z,2.40
2022-08-02T04:32:39.266Z,3.17
2022-08-02T04:35:23.235Z,2.80
2022-08-02T04:38:08.566Z,3.40
2022-08-02T04:40:38.554Z,2.83
2022-08-02T04:43:06.599Z,2.70
2022-08-02T04:45:34.445Z,2.87
2022-08-02T04:48:06.143Z,3.80
2022-08-02T04:50:34.435Z,3.07
2022-08-02T04:53:03.411Z,2.97
2022-08-02T04:55:31.018Z,2.80
2022-08-02T04:57:59.612Z,2.90
2022-08-02T05:00:28.639Z,2.50
2022-08-02T05:02:57.231Z,2.53
2022-08-02T05:05:25.284Z,2.30
2022-08-02T05:07:53.245Z,2.40
2022-08-02T05:10:22.480Z,2.97
2022-08-02T05:12:50.313Z,3.50
2022-08-02T05:15:18.562Z,3.10
2022-08-02T05:17:47.675Z,3.27
2022-08-02T05:20:17.009Z,3.30
2022-08-02T05:22:44.745Z,3.17
2022-08-02T05:25:12.684Z,3.33
2022-08-02T05:27:41.854Z,2.90
2022-08-02T05:30:10.838Z,2.80
2022-08-02T05:32:44.951Z,3.10
2022-08-02T05:35:12.792Z,2.50
2022-08-02T05:37:42.190Z,3.30
2022-08-02T05:40:12.944Z,2.80
2022-08-02T05:42:42.446Z,2.20
2022-08-02T05:45:11.218Z,2.10
2022-08-02T05:47:39.518Z,2.30
2022-08-02T05:50:08.503Z,2.47
2022-08-02T05:52:45.492Z,2.23
2022-08-02T05:55:18.255Z,1.70
2022-08-02T05:57:54.330Z,1.70
2022-08-02T06:00:23.009Z,1.93
2022-08-02T06:03:05.519Z,1.70
2022-08-02T06:05:41.358Z,2.30
2022-08-02T06:08:10.373Z,1.70
2022-08-02T06:10:39.203Z,1.67
2022-08-02T06:13:14.382Z,1.87
2022-08-02T06:15:53.408Z,2.20
2022-08-02T06:18:28.462Z,1.83
2022-08-02T06:20:58.956Z,1.70
2022-08-02T06:23:56.612Z,1.73
2022-08-02T06:26:27.807Z,1.60
2022-08-02T06:28:58.740Z,1.50
2022-08-02T06:31:26.651Z,1.80
2022-08-02T06:33:54.464Z,1.77
2022-08-02T06:36:31.141Z,1.97
2022-08-02T06:39:05.459Z,1.50
2022-08-02T06:41:40.411Z,1.70
2022-08-02T06:44:45.052Z,1.63
2022-08-02T06:47:11.065Z,1.80
2022-08-02T06:49:52.156Z,1.57
2022-08-02T06:52:28.464Z,1.37
2022-08-02T06:54:58.795Z,1.60
2022-08-02T06:57:26.522Z,1.47
2022-08-02T06:59:55.664Z,1.77
2022-08-02T07:02:23.662Z,1.70
2022-08-02T07:04:51.555Z,1.50
2022-08-02T07:07:19.811Z,1.53
2022-08-02T07:09:57.234Z,1.20
2022-08-02T07:12:30.139Z,1.47
2022-08-02T07:14:59.518Z,1.30
2022-08-02T07:17:27.679Z,1.70
2022-08-02T07:19:55.346Z,1.40
2022-08-02T07:22:24.525Z,1.27
2022-08-02T07:24:52.768Z,1.30
2022-08-02T07:27:21.179Z,1.70
2022-08-02T07:29:48.819Z,1.47
2022-08-02T07:32:19.249Z,1.63
2022-08-02T07:34:50.985Z,1.50
2022-08-02T07:37:35.836Z,1.50
2022-08-02T07:40:13.942Z,1.80
2022-08-02T07:42:43.705Z,1.67
2022-08-02T07:45:12.405Z,2.03
2022-08-02T07:47:42.523Z,2.40
2022-08-02T07:50:12.201Z,1.70
2022-08-02T07:52:40.704Z,1.67
2022-08-02T07:55:09.397Z,1.80
2022-08-02T07:57:38.130Z,1.60
2022-08-02T08:00:09.372Z,1.80
2022-08-02T08:02:37.170Z,1.60
2022-08-02T08:05:07.865Z,1.83
2022-08-02T08:07:35.893Z,1.30
2022-08-02T08:10:04.750Z,1.40
2022-08-02T08:12:32.548Z,1.67
2022-08-02T08:15:00.231Z,1.90
2022-08-02T08:17:27.937Z,1.30
2022-08-02T08:19:55.554Z,1.60
2022-08-02T08:22:24.534Z,1.60
2022-08-02T08:24:52.133Z,1.93
2022-08-02T08:27:22.699Z,1.50
2022-08-02T08:29:50.933Z,1.87
2022-08-02T08:32:19.655Z,1.50
2022-08-02T08:34:48.072Z,2.00
2022-08-02T08:37:17.057Z,1.80
2022-08-02T08:39:53.712Z,1.50
2022-08-02T08:42:27.199Z,1.60
2022-08-02T08:44:56.042Z,1.77
2022-08-02T08:47:25.038Z,1.60
2022-08-02T08:49:56.385Z,1.60
2022-08-02T08:52:26.190Z,1.60
2022-08-02T08:54:57.066Z,1.40
2022-08-02T08:57:31.474Z,1.33
2022-08-02T08:59:59.998Z,1.27
2022-08-02T09:02:28.510Z,1.33
2022-08-02T09:04:56.780Z,1.25
2022-08-02T09:07:24.340Z,1.90
2022-08-02T09:09:51.876Z,1.47
2022-08-02T09:12:24.941Z,1.73
2022-08-02T09:14:52.800Z,1.97
2022-08-02T09:17:21.905Z,1.80
2022-08-02T09:20:07.503Z,1.90
2022-08-02T09:22:35.359Z,2.00
2022-08-02T09:25:02.961Z,1.77
2022-08-02T09:27:37.203Z,1.57
2022-08-02T09:30:13.682Z,1.47
2022-08-02T09:32:46.439Z,1.60
2022-08-02T09:35:15.256Z,1.60
2022-08-02T09:37:48.388Z,1.83
2022-08-02T09:40:16.678Z,1.60
2022-08-02T09:42:59.221Z,1.70
2022-08-02T09:45:31.594Z,1.67
2022-08-02T09:47:59.294Z,1.60
2022-08-02T09:50:27.185Z,1.60
2022-08-02T09:52:56.902Z,1.80
2022-08-02T09:55:25.342Z,2.13
2022-08-02T09:57:54.342Z,1.50
2022-08-02T10:00:36.963Z,1.70
2022-08-02T10:03:08.943Z,1.77
2022-08-02T10:05:55.763Z,1.70
2022-08-02T10:08:25.771Z,1.87
2022-08-02T10:11:00.474Z,1.53
2022-08-02T10:13:31.610Z,1.50
2022-08-02T10:15:59.436Z,1.43
2022-08-02T10:18:42.301Z,1.70
2022-08-02T10:21:15.416Z,1.80
2022-08-02T10:23:46.043Z,1.60
2022-08-02T10:26:19.124Z,1.80
2022-08-02T10:28:50.500Z,1.77
2022-08-02T10:31:21.861Z,1.90
2022-08-02T10:33:52.909Z,1.77
2022-08-02T10:36:23.506Z,1.73
2022-08-02T10:38:51.671Z,1.60
2022-08-02T10:41:48.097Z,1.67
2022-08-02T10:44:25.693Z,2.00
2022-08-02T10:46:54.513Z,1.70
2022-08-02T10:49:39.285Z,1.70
2022-08-02T10:52:11.482Z,1.73
2022-08-02T10:54:40.937Z,1.60
2022-08-02T10:57:21.048Z,1.60
2022-08-02T10:59:51.318Z,1.57
2022-08-02T11:02:37.180Z,1.83
2022-08-02T11:05:08.871Z,1.80
2022-08-02T11:07:39.028Z,1.57
2022-08-02T11:10:29.590Z,1.90
2022-08-02T11:13:03.465Z,2.23
2022-08-02T11:15:49.457Z,1.83
2022-08-02T11:18:17.139Z,1.40
2022-08-02T11:20:45.013Z,1.60
2022-08-02T11:23:44.437Z,2.53
2022-08-02T11:26:46.180Z,1.87
2022-08-02T11:29:15.819Z,1.70
2022-08-02T11:31:46.382Z,1.87
2022-08-02T11:34:36.422Z,1.60
2022-08-02T11:37:02.402Z,1.70
2022-08-02T11:39:30.216Z,1.80
2022-08-02T11:42:00.325Z,1.77
2022-08-02T11:44:29.573Z,1.60
2022-08-02T11:47:00.321Z,1.90
2022-08-02T11:49:29.135Z,1.50
2022-08-02T11:52:01.708Z,1.50
2022-08-02T11:54:31.727Z,1.53
2022-08-02T11:57:14.445Z,1.70
2022-08-02T11:59:48.014Z,1.70
2022-08-02T12:02:18.764Z,2.00
2022-08-02T12:04:54.690Z,1.40
2022-08-02T12:07:34.566Z,1.40
2022-08-02T12:10:06.003Z,1.63
2022-08-02T12:12:34.004Z,2.03
2022-08-02T12:15:01.625Z,1.50
2022-08-02T12:17:48.364Z,1.33
2022-08-02T12:20:17.172Z,1.57
2022-08-02T12:22:45.146Z,1.67
2022-08-02T12:25:33.543Z,1.77
2022-08-02T12:28:18.014Z,1.90
2022-08-02T12:30:54.504Z,1.80
2022-08-02T12:33:24.541Z,1.80
2022-08-02T12:35:52.502Z,2.17
2022-08-02T12:38:20.494Z,2.00
2022-08-02T12:40:49.051Z,1.40
2022-08-02T12:43:23.744Z,1.63
2022-08-02T12:45:53.928Z,1.50
2022-08-02T12:48:37.369Z,1.73
2022-08-02T12:51:20.265Z,1.60
2022-08-02T12:53:48.314Z,1.70
2022-08-02T12:56:28.940Z,1.50
2022-08-02T12:58:56.879Z,1.73
2022-08-02T13:01:26.818Z,1.60
2022-08-02T13:04:11.065Z,1.63
2022-08-02T13:06:43.956Z,1.60
2022-08-02T13:09:14.128Z,1.63
2022-08-02T13:11:42.975Z,1.93
2022-08-02T13:14:11.595Z,1.73
2022-08-02T13:16:39.234Z,1.50
2022-08-02T13:19:08.228Z,1.87
2022-08-02T13:21:40.947Z,1.60
2022-08-02T13:24:39.817Z,1.60
2022-08-02T13:27:09.614Z,1.43
2022-08-02T13:29:37.593Z,1.43
2022-08-02T13:32:05.475Z,2.30
2022-08-02T13:34:34.593Z,1.90
2022-08-02T13:37:02.559Z,1.70
2022-08-02T13:39:30.219Z,1.50
2022-08-02T13:41:57.785Z,1.60
2022-08-02T13:44:25.381Z,1.60
2022-08-02T13:46:53.053Z,1.93
2022-08-02T13:49:20.691Z,1.70
2022-08-02T13:51:51.262Z,1.90
2022-08-02T13:54:19.239Z,1.90
2022-08-02T13:56:46.856Z,1.80
2022-08-02T13:59:53.988Z,2.30
2022-08-02T14:02:02.444Z,1.97
2022-08-02T14:04:31.028Z,1.90
2022-08-02T14:07:00.053Z,1.70
2022-08-02T14:09:28.105Z,2.30
2022-08-02T14:11:55.732Z,1.40
2022-08-02T14:14:23.302Z,1.73
2022-08-02T14:16:51.224Z,1.90
2022-08-02T14:19:21.694Z,1.90
2022-08-02T14:21:49.403Z,1.60
2022-08-02T14:24:19.798Z,1.70
2022-08-02T14:26:48.582Z,1.63
2022-08-02T14:29:17.067Z,1.70
2022-08-02T14:31:45.278Z,1.70
2022-08-02T14:34:13.218Z,1.80
2022-08-02T14:36:42.311Z,1.40
2022-08-02T14:39:10.259Z,1.60
2022-08-02T14:41:59.531Z,1.93
2022-08-02T14:44:27.252Z,1.70
2022-08-02T14:46:54.884Z,2.43
2022-08-02T14:49:24.585Z,1.77
2022-08-02T14:51:54.230Z,1.50
2022-08-02T14:54:27.804Z,2.20
2022-08-02T14:57:00.423Z,1.90
2022-08-02T14:59:28.298Z,1.90
2022-08-02T15:01:56.097Z,1.60
2022-08-02T15:04:23.858Z,1.80
2022-08-02T15:06:51.678Z,1.80
2022-08-02T15:09:20.037Z,1.50
2022-08-02T15:11:49.331Z,1.53
2022-08-02T15:14:21.992Z,1.77
2022-08-02T15:16:58.440Z,1.53
2022-08-02T15:19:40.868Z,1.73
2022-08-02T15:22:16.600Z,1.90
2022-08-02T15:24:46.789Z,1.40
2022-08-02T15:27:15.279Z,1.40
2022-08-02T15:29:46.359Z,1.77
2022-08-02T15:32:15.395Z,2.40
2022-08-02T15:34:43.236Z,1.97
2022-08-02T15:37:11.081Z,1.80
2022-08-02T15:39:39.458Z,2.30
2022-08-02T15:42:07.158Z,1.70
2022-08-02T15:44:34.798Z,2.00
2022-08-02T15:47:07.156Z,1.87
2022-08-02T15:49:39.373Z,1.50
2022-08-02T15:52:08.780Z,1.73
2022-08-02T15:54:36.360Z,1.40
2022-08-02T15:57:03.987Z,1.70
2022-08-02T15:59:31.656Z,1.87
2022-08-02T16:01:59.335Z,1.83
2022-08-02T16:04:28.258Z,1.60
2022-08-02T16:06:55.909Z,2.07
2022-08-02T16:09:23.625Z,1.77
2022-08-02T16:11:51.550Z,1.67
2022-08-02T16:14:19.255Z,1.70
2022-08-02T16:16:46.838Z,1.57
2022-08-02T16:19:46.214Z,1.50
2022-08-02T16:22:03.354Z,1.63
2022-08-02T16:24:31.655Z,1.70
2022-08-02T16:26:59.634Z,1.50
2022-08-02T16:29:27.305Z,1.80
2022-08-02T16:32:01.247Z,1.50
2022-08-02T16:34:40.265Z,1.60
2022-08-02T16:37:17.713Z,1.60
2022-08-02T16:39:45.291Z,1.50
2022-08-02T16:42:12.843Z,1.50
2022-08-02T16:44:53.290Z,1.47
2022-08-02T16:47:21.366Z,1.60
2022-08-02T16:50:10.594Z,2.13
2022-08-02T16:52:40.035Z,1.60
2022-08-02T16:55:10.943Z,1.60
2022-08-02T16:57:42.576Z,1.87
2022-08-02T17:00:13.101Z,2.03
2022-08-02T17:02:43.150Z,2.03
2022-08-02T17:05:14.336Z,1.70
2022-08-02T17:08:15.303Z,2.30
2022-08-02T17:10:33.470Z,1.77
2022-08-02T17:13:11.550Z,2.13
2022-08-02T17:16:01.155Z,1.60
2022-08-02T17:18:28.177Z,2.00
2022-08-02T17:20:56.170Z,1.80
2022-08-02T17:24:05.579Z,1.70
2022-08-02T17:26:13.186Z,2.00
2022-08-02T17:28:56.527Z,1.77
2022-08-02T17:31:29.826Z,1.80
2022-08-02T17:33:58.485Z,1.70
2022-08-02T17:36:26.260Z,1.80
2022-08-02T17:38:55.240Z,1.87
2022-08-02T17:41:37.749Z,1.80
2022-08-02T17:44:08.487Z,1.63
2022-08-02T17:46:37.080Z,2.07
2022-08-02T17:49:17.271Z,1.70
2022-08-02T17:52:49.255Z,1.60
2022-08-02T17:54:34.848Z,1.83
2022-08-02T17:57:02.529Z,2.10
2022-08-02T17:59:42.043Z,1.70
2022-08-02T18:02:11.547Z,1.83
2022-08-02T18:04:39.352Z,1.80
2022-08-02T18:07:09.719Z,1.60
2022-08-02T18:09:43.517Z,2.17
2022-08-02T18:12:14.258Z,1.50
2022-08-02T18:14:48.886Z,2.03
2022-08-02T18:17:17.645Z,1.83
2022-08-02T18:19:57.411Z,1.80
2022-08-02T18:22:27.136Z,1.93
2022-08-02T18:24:56.189Z,2.17
2022-08-02T18:27:23.912Z,1.77
2022-08-02T18:30:00.005Z,2.20
2022-08-02T18:33:55.681Z,1.73
2022-08-02T18:35:20.349Z,1.93
2022-08-02T18:37:57.063Z,1.60
2022-08-02T18:40:29.900Z,1.87
2022-08-02T18:42:57.600Z,1.93
2022-08-02T18:45:43.302Z,1.97
2022-08-02T18:48:17.527Z,2.10
2022-08-02T18:50:46.925Z,1.80
2022-08-02T18:53:16.303Z,2.10
2022-08-02T18:55:59.901Z,2.07
2022-08-02T18:58:32.005Z,2.10
2022-08-02T19:01:00.720Z,1.90
2022-08-02T19:03:49.281Z,2.07
2022-08-02T19:06:19.836Z,2.30
2022-08-02T19:09:05.963Z,2.00
2022-08-02T19:11:37.259Z,2.13
2022-08-02T19:14:05.093Z,2.70
2022-08-02T19:16:36.611Z,2.30
2022-08-02T19:19:05.858Z,1.90
2022-08-02T19:22:17.740Z,2.17
2022-08-02T19:24:21.336Z,1.90
2022-08-02T19:26:51.870Z,1.90
2022-08-02T19:29:42.259Z,1.70
2022-08-02T19:32:40.688Z,2.13
2022-08-02T19:34:58.416Z,2.10
2022-08-02T19:37:26.114Z,2.00
2022-08-02T19:40:05.539Z,2.20
2022-08-02T19:43:00.012Z,1.90
2022-08-02T19:45:45.053Z,2.00
2022-08-02T19:48:14.433Z,1.90
2022-08-02T19:50:44.280Z,1.70
2022-08-02T19:53:17.974Z,2.00
2022-08-02T19:55:58.240Z,2.50
2022-08-02T19:58:32.465Z,1.93
2022-08-02T20:01:00.264Z,2.20
2022-08-02T20:03:50.833Z,2.00
2022-08-02T20:06:17.805Z,2.10
2022-08-02T20:08:53.384Z,2.50
2022-08-02T20:11:25.033Z,2.83
2022-08-02T20:13:54.015Z,2.73
2022-08-02T20:16:27.784Z,3.20
2022-08-02T20:18:56.164Z,3.30
2022-08-02T20:21:36.520Z,2.77
2022-08-02T20:24:07.241Z,3.00
2022-08-02T20:26:35.162Z,2.80
2022-08-02T20:29:04.758Z,3.77
2022-08-02T20:31:32.420Z,2.90
2022-08-02T20:34:00.037Z,2.90
2022-08-02T20:36:28.692Z,3.40
2022-08-02T20:38:56.481Z,2.83
2022-08-02T20:41:37.036Z,3.60
2022-08-02T20:44:15.772Z,3.47
2022-08-02T20:46:59.262Z,3.60
2022-08-02T20:49:41.159Z,3.87
2022-08-02T20:52:23.357Z,4.00
2022-08-02T20:54:52.753Z,3.50
2022-08-02T20:57:36.081Z,3.83
2022-08-02T21:00:11.599Z,3.77
2022-08-02T21:02:39.201Z,3.60
2022-08-02T21:05:17.573Z,3.70
2022-08-02T21:07:47.742Z,3.50
2022-08-02T21:10:15.738Z,3.80
2022-08-02T21:12:45.231Z,4.27
2022-08-02T21:15:14.791Z,5.00
2022-08-02T21:17:46.672Z,4.13
2022-08-02T21:20:27.347Z,4.17
2022-08-02T21:22:57.850Z,4.03
2022-08-02T21:25:50.551Z,4.47
2022-08-02T21:28:17.706Z,4.40
2022-08-02T21:30:46.793Z,3.80
2022-08-02T21:33:18.914Z,3.50
2022-08-02T21:35:52.209Z,3.50
2022-08-02T21:38:35.541Z,3.80
2022-08-02T21:41:06.066Z,3.77
2022-08-02T21:43:40.124Z,3.83
2022-08-02T21:46:09.165Z,3.97
2022-08-02T21:48:42.347Z,3.20
2022-08-02T21:51:10.619Z,3.40
2022-08-02T21:53:43.799Z,3.20
2022-08-02T21:56:31.551Z,3.47
2022-08-02T21:59:00.036Z,3.13
2022-08-02T22:01:31.428Z,2.63
2022-08-02T22:03:59.233Z,3.03
2022-08-02T22:06:26.960Z,3.47
2022-08-02T22:08:55.124Z,3.60
2022-08-02T22:11:22.999Z,2.83
2022-08-02T22:13:51.146Z,2.97
2022-08-02T22:16:19.090Z,3.13
2022-08-02T22:18:51.511Z,3.20
2022-08-02T22:21:20.736Z,3.30
2022-08-02T22:23:51.329Z,3.23
2022-08-02T22:26:19.755Z,3.37
2022-08-02T22:31:40.915Z,3.23
2022-08-02T22:34:26.779Z,2.83
2022-08-02T22:36:58.498Z,3.13
2022-08-02T22:39:26.115Z,3.20
2022-08-02T22:42:06.380Z,2.70
2022-08-02T22:44:35.545Z,2.90
2022-08-02T22:47:13.739Z,2.77
2022-08-02T22:49:51.551Z,3.50
2022-08-02T22:52:22.401Z,3.50
2022-08-02T22:54:50.920Z,3.10
2022-08-02T22:57:30.778Z,3.17
2022-08-02T22:59:04.977Z,3.03
2022-08-02T22:59:59.796Z,3.33
2022-08-02T23:02:27.408Z,3.57
2022-08-02T23:04:56.666Z,3.50
2022-08-02T23:07:24.297Z,2.83
2022-08-02T23:09:51.935Z,2.90
2022-08-02T23:12:20.206Z,3.37
2022-08-02T23:14:48.416Z,3.20
2022-08-02T23:17:33.938Z,2.90
2022-08-02T23:20:03.212Z,3.40
2022-08-02T23:22:32.161Z,2.97
2022-08-02T23:25:01.365Z,3.27
2022-08-02T23:27:29.667Z,3.23
2022-08-02T23:29:57.746Z,2.77
2022-08-02T23:32:26.020Z,2.97
2022-08-02T23:34:54.153Z,3.20
2022-08-02T23:37:23.800Z,3.10
2022-08-02T23:39:51.563Z,3.10
2022-08-02T23:42:19.683Z,2.57
2022-08-02T23:44:47.552Z,3.20
2022-08-02T23:47:16.919Z,3.00
2022-08-02T23:49:44.944Z,3.00
2022-08-02T23:52:13.179Z,2.90
2022-08-02T23:54:42.437Z,3.23
2022-08-02T23:57:20.937Z,3.00
2022-08-02T23:59:51.155Z,2.67
